Time;durP1;ratioP1;P1;durP2;ratioP2;P2;SDS_P1;SDS_P2;PMS_P1;PMS_P2;Temp;Humidity;BMP_temperature;BMP_pressure;BME280_temperature;BME280_humidity;BME280_pressure;Samples;Min_cycle;Max_cycle;Signal;HPM_P1;HPM_P2
2022/08/10 00:00:21;;;;;;;1.38;0.98;;;;;;;20.08;43.71;102065.72;5074627;28;20575;-54
2022/08/10 00:02:50;;;;;;;4.30;1.45;;;;;;;19.98;43.99;102055.25;5074896;28;20021;-51
2022/08/10 00:05:16;;;;;;;3.95;1.23;;;;;;;19.91;43.82;102057.19;5056616;28;20031;-54
2022/08/10 00:07:42;;;;;;;3.10;1.10;;;;;;;19.83;43.79;102046.53;5074475;28;20111;-51
2022/08/10 00:10:10;;;;;;;4.88;1.38;;;;;;;19.82;43.87;102053.03;5056570;28;20074;-50
2022/08/10 00:12:36;;;;;;;0.95;0.80;;;;;;;19.73;44.14;102044.25;5074093;28;20060;-50
2022/08/10 00:15:04;;;;;;;1.40;0.80;;;;;;;19.69;43.92;102048.44;5073084;28;20113;-48
2022/08/10 00:17:29;;;;;;;0.90;0.90;;;;;;;19.63;44.20;102049.28;5074143;28;20035;-51
2022/08/10 00:19:55;;;;;;;2.20;1.23;;;;;;;19.61;44.70;102048.66;5056617;28;20067;-50
2022/08/10 00:22:21;;;;;;;1.30;1.00;;;;;;;19.43;44.43;102030.31;5074023;28;20469;-51
2022/08/10 00:24:47;;;;;;;2.70;0.88;;;;;;;19.35;44.41;102047.69;5074401;28;20093;-53
2022/08/10 00:27:13;;;;;;;4.78;1.00;;;;;;;19.31;44.10;102039.09;5056881;28;20028;-53
2022/08/10 00:29:38;;;;;;;1.27;0.90;;;;;;;19.30;44.10;102036.63;5077063;28;20031;-52
2022/08/10 00:32:04;;;;;;;3.42;1.02;;;;;;;19.27;44.16;102024.25;5060041;28;20116;-50
2022/08/10 00:34:32;;;;;;;1.63;1.00;;;;;;;19.39;44.05;102040.78;5076051;28;20056;-50
2022/08/10 00:36:58;;;;;;;2.78;1.55;;;;;;;19.39;44.19;102035.34;5078398;28;20407;-49
2022/08/10 00:39:25;;;;;;;2.47;1.80;;;;;;;19.26;44.03;102019.88;5077768;28;20028;-51
2022/08/10 00:41:51;;;;;;;2.28;1.55;;;;;;;19.31;44.33;102032.84;5075785;28;20028;-50
2022/08/10 00:44:17;;;;;;;4.55;1.17;;;;;;;19.21;44.60;102040.63;5075733;28;20085;-51
2022/08/10 00:46:42;;;;;;;2.65;1.45;;;;;;;19.11;44.80;102039.19;5074929;28;20040;-53
2022/08/10 00:49:08;;;;;;;4.03;1.73;;;;;;;18.99;44.83;102018.25;5074650;28;20029;-51
2022/08/10 00:51:34;;;;;;;2.40;1.45;;;;;;;19.02;44.75;102032.28;5056509;28;20024;-52
2022/08/10 00:54:00;;;;;;;1.75;1.20;;;;;;;18.92;45.14;102026.41;5074415;28;20162;-51
2022/08/10 00:56:27;;;;;;;1.90;1.38;;;;;;;19.00;45.18;102041.69;5074136;28;20032;-52
2022/08/10 00:58:53;;;;;;;2.72;1.30;;;;;;;18.96;45.20;102041.25;5073967;28;20126;-52
2022/08/10 01:01:18;;;;;;;1.52;1.02;;;;;;;18.92;45.32;102042.75;5074308;28;20028;-49
2022/08/10 01:03:44;;;;;;;2.30;1.10;;;;;;;18.88;45.19;102042.31;5074002;28;20033;-50
2022/08/10 01:06:30;;;;;;;3.90;1.08;;;;;;;18.83;46.74;102042.09;5073447;28;20033;-49
2022/08/10 01:09:10;;;;;;;1.08;0.90;;;;;;;18.72;46.48;102040.84;5074582;28;20036;-50
2022/08/10 01:12:15;;;;;;;3.13;1.25;;;;;;;18.66;47.08;102041.66;5078083;28;20353;-51
2022/08/10 01:15:05;;;;;;;3.95;1.00;;;;;;;18.56;46.43;102025.75;5077022;28;20173;-52
2022/08/10 01:17:47;;;;;;;1.35;0.88;;;;;;;18.39;46.85;102019.06;5077793;28;20115;-53
2022/08/10 01:20:40;;;;;;;2.88;1.27;;;;;;;18.13;46.84;101979.06;5060772;28;20031;-52
2022/08/10 01:23:39;;;;;;;0.98;0.85;;;;;;;18.45;47.17;102031.81;5065881;28;20029;-51
2022/08/10 01:26:29;;;;;;;1.38;0.90;;;;;;;18.41;47.75;102033.28;5064117;28;20040;-53
2022/08/10 01:29:27;;;;;;;2.58;0.88;;;;;;;18.32;47.97;102029.91;5061244;28;20036;-49
2022/08/10 01:32:00;;;;;;;1.33;0.70;;;;;;;18.22;46.87;102012.31;5061854;28;20032;-53
2022/08/10 01:34:40;;;;;;;2.33;0.77;;;;;;;18.24;46.99;102030.13;5077880;28;20075;-49
2022/08/10 01:37:10;;;;;;;2.05;1.10;;;;;;;18.07;46.99;102012.50;5077656;28;20032;-50
2022/08/10 01:39:40;;;;;;;1.00;0.90;;;;;;;18.11;47.12;102027.38;5076516;28;20024;-49
2022/08/10 01:42:13;;;;;;;1.48;0.80;;;;;;;18.14;47.21;102021.50;5077457;28;20029;-48
2022/08/10 01:44:44;;;;;;;2.17;0.98;;;;;;;18.13;46.89;102022.56;5077476;28;20028;-50
2022/08/10 01:50:05;;;;;;;1.52;1.20;;;;;;;18.05;47.43;102015.41;5055699;28;20052;-48
2022/08/10 01:52:33;;;;;;;1.63;1.20;;;;;;;17.95;47.27;102013.09;5057024;28;20108;-49
2022/08/10 01:54:58;;;;;;;1.33;1.20;;;;;;;17.90;47.72;102017.47;5057040;28;20119;-54
2022/08/10 01:57:27;;;;;;;1.73;1.20;;;;;;;17.75;47.72;102006.72;5057332;28;20107;-50
2022/08/10 01:59:56;;;;;;;1.30;0.90;;;;;;;17.78;48.13;102017.19;5056150;28;20037;-51
2022/08/10 02:02:24;;;;;;;2.05;1.42;;;;;;;17.63;48.48;102028.22;5057206;28;20102;-50
2022/08/10 02:04:53;;;;;;;3.20;1.30;;;;;;;17.65;48.22;102022.59;5057805;28;20446;-50
2022/08/10 02:07:27;;;;;;;0.80;0.80;;;;;;;17.61;48.78;102020.25;5058238;28;20037;-50
2022/08/10 02:09:57;;;;;;;1.25;1.13;;;;;;;17.61;48.87;102022.16;5058918;28;20025;-49
2022/08/10 02:12:28;;;;;;;1.60;1.05;;;;;;;17.50;48.23;102012.69;5058127;28;20346;-51
2022/08/10 02:15:07;;;;;;;1.73;1.20;;;;;;;17.52;49.23;102013.31;5057291;28;20029;-53
2022/08/10 02:17:38;;;;;;;1.40;1.17;;;;;;;17.49;48.94;102024.59;5072287;28;20215;-51
2022/08/10 02:20:11;;;;;;;1.50;1.02;;;;;;;17.45;48.97;102017.06;5056915;28;20361;-52
2022/08/10 02:22:38;;;;;;;1.60;1.50;;;;;;;17.38;48.75;102019.72;5056761;28;20029;-53
2022/08/10 02:25:06;;;;;;;2.80;2.05;;;;;;;17.30;49.09;102019.91;5072445;28;20035;-50
2022/08/10 02:27:33;;;;;;;2.13;1.90;;;;;;;17.23;49.04;102011.69;5057100;28;20079;-50
2022/08/10 02:30:00;;;;;;;1.90;1.70;;;;;;;17.27;49.11;102014.84;5057586;28;20115;-50
2022/08/10 02:32:26;;;;;;;3.05;1.92;;;;;;;17.16;49.87;102006.25;5057091;28;20033;-55
2022/08/10 02:34:54;;;;;;;1.90;1.50;;;;;;;17.16;49.63;102019.81;5056860;28;20117;-49
2022/08/10 02:37:24;;;;;;;1.80;1.63;;;;;;;17.11;49.66;102011.44;5056727;28;20056;-50
2022/08/10 02:39:50;;;;;;;3.20;1.60;;;;;;;17.10;49.95;102012.47;5071846;28;20035;-55
2022/08/10 02:42:22;;;;;;;1.92;1.33;;;;;;;17.01;50.11;102000.94;5059375;28;20112;-54
2022/08/10 02:44:58;;;;;;;2.90;1.40;;;;;;;16.95;50.66;102011.75;5071761;28;20029;-50
2022/08/10 02:47:30;;;;;;;1.20;0.90;;;;;;;16.87;50.41;101995.63;5056533;28;20025;-50
2022/08/10 02:50:07;;;;;;;1.83;1.50;;;;;;;16.91;51.03;102007.75;5063507;28;20071;-53
2022/08/10 02:52:41;;;;;;;3.13;1.58;;;;;;;16.78;50.53;101986.75;5075950;28;20116;-53
2022/08/10 02:55:21;;;;;;;1.45;1.27;;;;;;;16.84;51.18;102007.69;5076180;28;20032;-51
2022/08/10 02:57:52;;;;;;;2.00;1.33;;;;;;;16.83;50.43;102008.75;5074855;28;20039;-50
2022/08/10 03:00:18;;;;;;;1.70;1.17;;;;;;;16.78;50.35;102003.84;5076053;28;20036;-50
2022/08/10 03:02:48;;;;;;;2.17;1.30;;;;;;;16.79;50.41;102010.13;5058122;28;20035;-51
2022/08/10 03:05:18;;;;;;;2.45;1.27;;;;;;;16.75;50.64;102015.13;5075925;28;20032;-50
2022/08/10 03:08:06;;;;;;;4.40;1.42;;;;;;;16.65;51.67;102004.59;5075474;28;20443;-51
2022/08/10 03:10:37;;;;;;;1.92;0.98;;;;;;;16.61;50.89;102008.72;5075876;28;20043;-49
2022/08/10 03:13:06;;;;;;;1.52;1.17;;;;;;;16.52;51.22;101992.81;5074533;28;20040;-50
2022/08/10 03:15:33;;;;;;;1.92;1.20;;;;;;;16.58;51.06;102000.97;5075624;28;20044;-50
2022/08/10 03:18:00;;;;;;;1.10;0.80;;;;;;;16.58;51.02;102000.97;5057750;28;20481;-52
2022/08/10 03:20:30;;;;;;;1.90;0.88;;;;;;;16.52;51.39;101990.09;5075731;28;20032;-50
2022/08/10 03:22:57;;;;;;;0.82;0.82;;;;;;;16.43;51.53;101990.22;5075166;28;20082;-50
2022/08/10 03:25:25;;;;;;;1.00;0.90;;;;;;;16.48;51.30;102000.50;5074555;28;20056;-50
2022/08/10 03:27:52;;;;;;;1.20;1.00;;;;;;;16.36;51.33;101991.19;5057544;28;20036;-49
2022/08/10 03:30:18;;;;;;;0.88;0.80;;;;;;;16.37;51.76;102004.56;5074448;28;20078;-49
2022/08/10 03:32:45;;;;;;;2.40;1.10;;;;;;;16.29;51.77;102009.25;5074581;28;20060;-49
2022/08/10 03:35:12;;;;;;;1.00;0.85;;;;;;;16.20;52.11;102001.25;5075345;28;20033;-49
2022/08/10 03:37:39;;;;;;;2.15;1.23;;;;;;;16.12;52.02;101997.84;5075433;28;20112;-49
2022/08/10 03:40:06;;;;;;;2.53;1.52;;;;;;;16.12;52.32;102011.38;5075101;28;20388;-49
2022/08/10 03:42:34;;;;;;;3.60;1.15;;;;;;;16.10;52.39;102013.44;5057324;28;20119;-50
2022/08/10 03:45:03;;;;;;;1.50;1.30;;;;;;;15.99;52.72;102012.06;5075366;28;20036;-51
2022/08/10 03:47:30;;;;;;;2.15;1.13;;;;;;;15.95;52.63;102000.78;5076096;28;20029;-49
2022/08/10 03:49:58;;;;;;;0.98;0.95;;;;;;;15.95;52.59;101994.53;5074581;28;20049;-49
2022/08/10 03:52:25;;;;;;;1.83;1.20;;;;;;;15.93;53.01;101999.31;5056966;28;20484;-49
2022/08/10 03:54:51;;;;;;;3.40;1.20;;;;;;;15.86;52.71;101986.53;5073768;28;20132;-52
2022/08/10 03:57:18;;;;;;;1.35;1.08;;;;;;;15.93;52.97;102000.13;5073588;28;20025;-49
2022/08/10 03:59:44;;;;;;;1.60;1.35;;;;;;;15.92;52.60;101995.75;5074983;28;20028;-49
2022/08/10 04:02:10;;;;;;;1.92;0.95;;;;;;;15.94;52.64;101998.28;5074642;28;20047;-50
2022/08/10 04:04:36;;;;;;;1.00;0.90;;;;;;;15.93;52.54;101997.44;5074374;28;20036;-48
2022/08/10 04:07:03;;;;;;;1.02;0.95;;;;;;;15.89;52.92;101990.72;5056489;28;20073;-52
2022/08/10 04:09:31;;;;;;;1.75;1.05;;;;;;;15.93;52.89;101992.00;5074965;28;20035;-55
2022/08/10 04:11:57;;;;;;;1.63;0.95;;;;;;;15.84;53.02;101977.75;5074744;28;20054;-50
2022/08/10 04:14:23;;;;;;;1.63;1.20;;;;;;;15.80;53.25;101984.56;5077014;28;20082;-51
2022/08/10 04:16:48;;;;;;;3.20;1.38;;;;;;;15.75;53.42;101994.28;5074683;28;20477;-54
2022/08/10 04:19:17;;;;;;;3.03;1.23;;;;;;;15.64;53.88;101992.91;5075504;28;20056;-52
2022/08/10 04:21:46;;;;;;;1.40;1.20;;;;;;;15.60;54.09;102000.56;5073219;28;20036;-53
2022/08/10 04:24:19;;;;;;;1.42;1.33;;;;;;;15.57;53.96;101991.97;5074423;28;20058;-51
2022/08/10 04:26:45;;;;;;;2.97;1.50;;;;;;;15.46;54.83;101982.47;5056690;28;20125;-53
2022/08/10 04:29:12;;;;;;;6.50;1.80;;;;;;;15.49;55.06;101995.66;5074170;28;20039;-53
2022/08/10 04:31:40;;;;;;;2.03;1.35;;;;;;;15.41;54.66;101984.91;5074176;28;20453;-52
2022/08/10 04:34:07;;;;;;;3.85;1.27;;;;;;;15.39;54.73;101976.97;5074271;28;20036;-54
2022/08/10 04:36:34;;;;;;;1.30;1.10;;;;;;;15.40;54.54;101984.06;5072803;28;20551;-50
2022/08/10 04:39:00;;;;;;;2.22;1.05;;;;;;;15.45;54.35;101991.59;5074358;28;20029;-50
2022/08/10 04:41:27;;;;;;;2.17;1.10;;;;;;;15.45;54.32;101986.19;5074481;28;20036;-49
2022/08/10 04:43:53;;;;;;;2.38;1.23;;;;;;;15.37;54.43;101980.88;5074551;28;20101;-48
2022/08/10 04:46:19;;;;;;;3.50;1.65;;;;;;;15.37;54.95;101992.56;5074809;28;20032;-50
2022/08/10 04:48:45;;;;;;;4.20;1.40;;;;;;;15.34;54.90;101994.78;5074046;28;20086;-50
2022/08/10 04:51:15;;;;;;;1.83;1.20;;;;;;;15.34;55.08;102001.06;5073434;28;20049;-50
2022/08/10 04:53:41;;;;;;;2.05;1.13;;;;;;;15.23;54.94;101983.44;5056097;28;20040;-49
2022/08/10 04:56:07;;;;;;;1.92;1.20;;;;;;;15.33;55.03;102002.09;5074100;28;20035;-50
2022/08/10 04:58:34;;;;;;;2.33;1.23;;;;;;;15.29;55.24;102006.19;5072451;28;20439;-50
2022/08/10 05:01:00;;;;;;;1.60;1.50;;;;;;;15.31;55.13;102003.31;5055795;28;20025;-53
2022/08/10 05:03:26;;;;;;;1.75;1.33;;;;;;;15.22;55.83;101995.25;5074378;28;20066;-53
2022/08/10 05:05:52;;;;;;;3.38;1.33;;;;;;;15.24;55.74;102014.84;5073494;28;20032;-50
2022/08/10 05:08:17;;;;;;;2.08;1.63;;;;;;;15.25;56.10;102004.91;5073909;28;20040;-53
2022/08/10 05:10:43;;;;;;;2.28;1.55;;;;;;;15.16;56.83;102006.84;5073790;28;20379;-52
2022/08/10 05:13:09;;;;;;;4.32;1.15;;;;;;;15.16;56.50;102012.25;5073490;28;20040;-53
2022/08/10 05:15:35;;;;;;;3.75;1.40;;;;;;;15.22;56.31;102016.09;5073894;28;20169;-51
2022/08/10 05:18:01;;;;;;;3.25;2.08;;;;;;;15.08;58.02;102024.00;5055910;28;20127;-50
2022/08/10 05:20:27;;;;;;;7.07;1.80;;;;;;;15.05;57.76;102023.53;5074171;28;20052;-49
2022/08/10 05:22:52;;;;;;;5.93;1.95;;;;;;;15.12;57.10;102029.03;5072625;28;20361;-51
2022/08/10 05:25:19;;;;;;;3.85;2.72;;;;;;;15.11;57.84;102022.78;5072637;28;20416;-52
2022/08/10 05:27:46;;;;;;;1.85;1.35;;;;;;;15.13;57.27;102028.03;5073896;28;20021;-50
2022/08/10 05:30:21;;;;;;;2.47;1.45;;;;;;;15.22;57.64;102026.91;5056043;28;20075;-50
2022/08/10 05:32:47;;;;;;;4.35;1.83;;;;;;;15.17;57.91;102024.75;5055779;28;20020;-50
2022/08/10 05:35:13;;;;;;;5.25;1.77;;;;;;;15.16;57.75;102027.66;5073673;28;20119;-53
2022/08/10 05:37:40;;;;;;;2.10;1.30;;;;;;;15.25;56.89;102023.84;5073330;28;20111;-53
2022/08/10 05:40:07;;;;;;;6.65;1.98;;;;;;;15.33;56.79;102028.31;5073116;28;20032;-50
2022/08/10 05:42:33;;;;;;;4.47;2.00;;;;;;;15.37;57.36;102024.22;5073392;28;20476;-50
2022/08/10 05:44:59;;;;;;;7.32;2.63;;;;;;;15.28;59.40;102035.13;5073417;28;20086;-50
2022/08/10 05:47:25;;;;;;;3.33;1.77;;;;;;;15.26;58.24;102025.50;5073377;28;20033;-55
2022/08/10 05:49:51;;;;;;;2.67;2.00;;;;;;;15.27;57.31;102017.19;5073308;28;20045;-50
2022/08/10 05:52:18;;;;;;;2.40;1.80;;;;;;;15.42;57.02;102024.50;5055828;28;20107;-51
2022/08/10 05:54:45;;;;;;;1.70;1.60;;;;;;;15.54;57.39;102033.81;5073441;28;20071;-52
2022/08/10 05:57:14;;;;;;;1.92;1.30;;;;;;;15.58;57.05;102040.53;5076710;28;20116;-53
2022/08/10 05:59:46;;;;;;;1.70;1.55;;;;;;;15.66;57.03;102039.59;5075554;28;20453;-52
2022/08/10 06:02:21;;;;;;;3.30;1.42;;;;;;;15.86;56.63;102042.56;5076958;28;20431;-51
2022/08/10 06:04:50;;;;;;;2.17;1.40;;;;;;;15.81;56.74;102043.16;5077422;28;20453;-51
2022/08/10 06:07:18;;;;;;;1.60;1.40;;;;;;;15.81;56.79;102045.03;5076625;28;20040;-51
2022/08/10 06:09:46;;;;;;;3.13;1.45;;;;;;;15.85;56.76;102046.31;5076537;28;20036;-52
2022/08/10 06:12:13;;;;;;;4.75;1.73;;;;;;;15.87;57.42;102052.38;5075500;28;20024;-51
2022/08/10 06:17:30;;;;;;;1.90;1.60;;;;;;;15.81;59.17;102042.31;5061830;28;20445;-50
2022/08/10 06:19:58;;;;;;;7.70;2.33;;;;;;;15.71;60.79;102037.13;5076320;28;20029;-53
2022/08/10 06:22:27;;;;;;;5.05;1.60;;;;;;;15.80;59.69;102043.34;5076623;28;20029;-54
2022/08/10 06:24:56;;;;;;;6.97;2.20;;;;;;;15.83;59.19;102032.13;5076613;28;20350;-51
2022/08/10 06:27:22;;;;;;;3.85;2.00;;;;;;;15.94;59.09;102041.63;5058253;28;20123;-50
2022/08/10 06:29:49;;;;;;;3.47;1.40;;;;;;;16.00;58.21;102039.00;5058503;28;20048;-51
2022/08/10 06:32:16;;;;;;;5.85;2.83;;;;;;;16.02;60.58;102046.94;5075242;28;20040;-53
2022/08/10 06:34:47;;;;;;;3.75;2.08;;;;;;;15.92;61.36;102049.13;5076893;28;20070;-53
2022/08/10 06:37:16;;;;;;;5.03;1.80;;;;;;;15.98;59.98;102041.06;5076036;28;20405;-50
2022/08/10 06:39:43;;;;;;;6.07;2.55;;;;;;;15.98;60.94;102032.94;5075301;28;20087;-52
2022/08/10 06:42:16;;;;;;;5.20;2.88;;;;;;;15.94;62.84;102039.75;5076583;28;20052;-52
2022/08/10 06:45:06;;;;;;;3.15;1.92;;;;;;;16.03;61.86;102043.22;5058592;28;20033;-51
2022/08/10 06:47:58;;;;;;;6.90;2.35;;;;;;;16.13;61.58;102045.59;5075842;28;20036;-51
2022/08/10 06:50:32;;;;;;;4.43;2.05;;;;;;;16.20;60.32;102049.22;5058088;28;20088;-51
2022/08/10 06:53:01;;;;;;;5.13;2.45;;;;;;;16.24;60.71;102054.06;5076010;28;20025;-52
2022/08/10 06:55:28;;;;;;;5.40;2.15;;;;;;;16.28;59.86;102045.56;5075860;28;20035;-52
2022/08/10 06:57:55;;;;;;;5.28;2.20;;;;;;;16.33;60.56;102041.22;5075815;28;20024;-50
2022/08/10 07:00:25;;;;;;;8.05;3.38;;;;;;;16.34;60.93;102048.31;5076118;28;20037;-50
2022/08/10 07:02:57;;;;;;;8.43;2.88;;;;;;;16.32;60.62;102028.69;5074700;28;20473;-52
2022/08/10 07:05:25;;;;;;;6.05;2.65;;;;;;;16.41;61.94;102042.97;5076277;28;20028;-52
2022/08/10 07:07:55;;;;;;;5.50;3.30;;;;;;;16.41;61.77;102041.09;5075683;28;20138;-50
2022/08/10 07:10:24;;;;;;;4.28;3.88;;;;;;;16.47;62.03;102041.34;5076022;28;20043;-51
2022/08/10 07:12:54;;;;;;;5.82;4.20;;;;;;;16.51;62.82;102040.78;5057647;28;20020;-52
2022/08/10 07:15:21;;;;;;;5.63;3.80;;;;;;;16.54;62.64;102045.81;5076190;28;20024;-50
2022/08/10 07:17:50;;;;;;;8.98;3.40;;;;;;;16.57;62.81;102044.59;5075765;28;20035;-50
2022/08/10 07:20:18;;;;;;;6.80;4.13;;;;;;;16.54;63.88;102037.66;5074953;28;20028;-50
2022/08/10 07:22:48;;;;;;;8.82;3.35;;;;;;;16.60;63.22;102038.75;5075226;28;20481;-50
2022/08/10 07:25:17;;;;;;;10.18;4.80;;;;;;;16.64;65.28;102038.19;5076305;28;20028;-51
2022/08/10 07:27:44;;;;;;;10.63;5.45;;;;;;;16.69;65.21;102034.88;5075439;28;20025;-50
2022/08/10 07:30:10;;;;;;;11.68;4.45;;;;;;;16.75;63.51;102030.53;5075328;28;20496;-51
2022/08/10 07:32:38;;;;;;;4.68;4.28;;;;;;;16.87;63.34;102033.59;5040518;28;20052;-49
2022/08/10 07:35:05;;;;;;;7.70;5.28;;;;;;;16.95;63.42;102033.44;5058857;28;20326;-52
2022/08/10 07:37:35;;;;;;;9.40;7.10;;;;;;;17.01;65.92;102041.66;5075572;28;20041;-51
2022/08/10 07:40:03;;;;;;;11.00;6.78;;;;;;;17.07;66.80;102040.03;5074976;28;20032;-50
2022/08/10 07:42:30;;;;;;;7.45;3.90;;;;;;;17.12;64.63;102018.53;5075291;28;20540;-50
2022/08/10 07:44:56;;;;;;;14.85;6.25;;;;;;;17.26;66.30;102030.31;5075382;28;20021;-49
2022/08/10 07:47:27;;;;;;;4.20;3.72;;;;;;;17.34;63.99;102030.16;5075320;28;20062;-51
2022/08/10 07:49:56;;;;;;;4.25;3.47;;;;;;;17.42;63.54;102032.72;5056979;28;20048;-52
2022/08/10 07:52:22;;;;;;;7.20;4.13;;;;;;;17.49;63.88;102023.75;5074768;28;20480;-51
2022/08/10 07:54:51;;;;;;;14.95;5.85;;;;;;;17.54;65.41;102030.25;5074702;28;20060;-50
2022/08/10 07:57:21;;;;;;;4.75;4.28;;;;;;;17.60;64.65;102024.00;5075379;28;20427;-51
2022/08/10 07:59:53;;;;;;;7.93;3.95;;;;;;;17.69;63.51;102021.13;5057610;28;20384;-51
2022/08/10 08:02:29;;;;;;;7.93;4.28;;;;;;;17.76;63.71;102025.56;5075105;28;20436;-49
2022/08/10 08:04:59;;;;;;;8.98;4.80;;;;;;;17.86;64.33;102027.09;5074823;28;20067;-51
2022/08/10 08:07:26;;;;;;;6.60;4.38;;;;;;;17.97;63.87;102026.50;5074856;28;20025;-50
2022/08/10 08:09:55;;;;;;;12.25;4.88;;;;;;;17.99;64.16;102005.38;5074201;28;20472;-48
2022/08/10 08:12:22;;;;;;;11.23;6.45;;;;;;;18.13;65.44;102007.09;5074626;28;20445;-52
2022/08/10 08:14:51;;;;;;;8.48;5.53;;;;;;;18.29;64.08;102010.44;5076040;28;20036;-52
2022/08/10 08:17:18;;;;;;;8.00;5.32;;;;;;;18.32;62.67;102010.03;5077264;28;20024;-48
2022/08/10 08:19:48;;;;;;;6.50;5.22;;;;;;;18.44;62.35;102012.97;5075970;28;20028;-51
2022/08/10 08:22:16;;;;;;;6.63;4.63;;;;;;;18.49;62.48;102005.03;5076158;28;20025;-53
2022/08/10 08:24:43;;;;;;;8.85;7.00;;;;;;;18.62;62.75;102015.91;5056947;28;20036;-53
2022/08/10 08:27:11;;;;;;;10.98;6.40;;;;;;;18.73;63.13;102017.19;5056533;28;20029;-50
2022/08/10 08:29:40;;;;;;;7.65;5.30;;;;;;;18.82;61.94;102005.06;5072667;28;20033;-51
2022/08/10 08:32:07;;;;;;;10.93;5.10;;;;;;;18.93;61.29;102007.16;5074000;28;20094;-54
2022/08/10 08:34:36;;;;;;;9.00;4.82;;;;;;;19.14;61.21;102003.31;5073749;28;20123;-52
2022/08/10 08:37:04;;;;;;;4.63;4.15;;;;;;;19.27;59.92;102004.34;5072614;28;20043;-51
2022/08/10 08:39:32;;;;;;;11.07;5.00;;;;;;;19.36;59.45;102003.06;5055411;28;20464;-55
2022/08/10 08:42:37;;;;;;;8.60;4.18;;;;;;;19.48;60.05;101998.63;5073688;28;20036;-51
2022/08/10 08:45:28;;;;;;;7.15;3.70;;;;;;;19.62;58.22;101991.22;5073745;28;20032;-52
2022/08/10 08:48:29;;;;;;;10.75;4.13;;;;;;;19.78;57.68;101997.25;5056582;28;20037;-49
2022/08/10 08:51:25;;;;;;;2.88;2.67;;;;;;;19.87;57.35;101977.72;5072822;28;20052;-49
2022/08/10 08:54:21;;;;;;;7.07;3.03;;;;;;;20.15;56.48;101975.66;5055804;28;20033;-50
2022/08/10 08:57:06;;;;;;;4.22;2.58;;;;;;;20.81;55.03;101982.50;5073164;28;20031;-51
2022/08/10 09:00:05;;;;;;;4.68;2.47;;;;;;;22.60;51.10;101984.78;5073930;28;20029;-50
2022/08/10 09:03:11;;;;;;;2.20;1.95;;;;;;;24.19;47.74;101972.75;5073129;28;20029;-51
2022/08/10 09:06:04;;;;;;;5.40;2.08;;;;;;;25.40;44.58;101972.09;5059139;28;20136;-53
2022/08/10 09:09:10;;;;;;;7.40;2.25;;;;;;;26.25;41.06;101966.94;5072593;28;20496;-50
2022/08/10 09:12:15;;;;;;;3.67;2.25;;;;;;;27.09;41.05;101970.00;5041423;28;20469;-50
2022/08/10 09:14:59;;;;;;;3.13;1.42;;;;;;;27.81;39.67;101970.28;5058343;28;20077;-49
2022/08/10 09:17:54;;;;;;;3.05;1.90;;;;;;;28.36;35.68;101960.41;5073598;28;20413;-48
2022/08/10 09:20:33;;;;;;;5.50;2.40;;;;;;;28.64;34.45;101957.34;5072270;28;20086;-50
2022/08/10 09:23:08;;;;;;;6.18;2.60;;;;;;;29.18;35.57;101953.91;5073025;28;20598;-49
2022/08/10 09:25:40;;;;;;;4.22;2.13;;;;;;;29.99;34.39;101943.44;5073274;28;20056;-50
2022/08/10 09:28:10;;;;;;;2.30;1.67;;;;;;;30.30;34.31;101935.69;5073124;28;20024;-52
2022/08/10 09:30:45;;;;;;;3.60;1.60;;;;;;;30.95;33.34;101934.50;5075350;28;20055;-52
2022/08/10 09:33:14;;;;;;;5.35;1.80;;;;;;;30.69;33.02;101940.31;5060039;28;20035;-53
2022/08/10 09:35:56;;;;;;;5.30;1.70;;;;;;;31.34;31.81;101929.84;5077315;28;20112;-52
2022/08/10 09:38:53;;;;;;;5.07;1.73;;;;;;;31.77;26.89;101927.03;5077568;28;20024;-53
2022/08/10 09:41:33;;;;;;;4.43;1.50;;;;;;;31.40;28.30;101931.44;5062299;28;20497;-54
2022/08/10 09:44:12;;;;;;;3.92;1.58;;;;;;;31.66;30.48;101929.13;5077436;28;20107;-51
2022/08/10 09:47:07;;;;;;;5.10;1.17;;;;;;;32.79;28.69;101925.22;5077834;28;20036;-49
2022/08/10 09:50:06;;;;;;;6.68;1.73;;;;;;;32.98;25.79;101919.53;5076125;28;20049;-50
2022/08/10 09:53:05;;;;;;;4.88;1.02;;;;;;;33.35;25.17;101919.63;5076079;28;20041;-49
2022/08/10 09:55:47;;;;;;;4.88;1.20;;;;;;;33.51;24.02;101914.53;5076008;28;20036;-52
2022/08/10 09:58:33;;;;;;;2.95;0.80;;;;;;;34.11;24.61;101900.22;5076897;28;20036;-50
2022/08/10 10:01:23;;;;;;;7.47;1.30;;;;;;;34.34;23.64;101900.22;5077114;28;20052;-49
2022/08/10 10:04:28;;;;;;;5.85;1.08;;;;;;;34.75;25.12;101901.06;5058599;28;20025;-50
2022/08/10 10:06:57;;;;;;;2.30;0.93;;;;;;;34.92;24.49;101894.69;5061688;28;20032;-49
2022/08/10 10:09:33;;;;;;;2.17;0.70;;;;;;;35.53;22.59;101895.63;5077196;28;20071;-48
2022/08/10 10:12:28;;;;;;;4.90;0.90;;;;;;;35.67;23.76;101887.84;5058989;28;20025;-48
2022/08/10 10:15:21;;;;;;;4.85;1.10;;;;;;;36.62;23.12;101879.56;5059203;28;20036;-50
2022/08/10 10:18:27;;;;;;;6.05;0.90;;;;;;;36.83;22.10;101878.81;5075775;28;20025;-49
2022/08/10 10:21:08;;;;;;;4.95;0.80;;;;;;;37.39;21.48;101871.81;5061664;28;20033;-51
2022/08/10 10:23:46;;;;;;;2.60;0.75;;;;;;;37.66;22.41;101874.41;5076440;28;20107;-54
2022/08/10 10:26:23;;;;;;;8.25;1.40;;;;;;;36.96;21.26;101861.75;5076783;28;20041;-50
2022/08/10 10:29:22;;;;;;;2.97;1.00;;;;;;;36.68;21.44;101867.03;5075741;28;20029;-50
2022/08/10 10:31:56;;;;;;;0.55;0.52;;;;;;;37.37;22.61;101864.91;5058605;28;20518;-52
2022/08/10 10:34:40;;;;;;;1.55;0.90;;;;;;;37.99;20.07;101856.75;5076425;28;20044;-51
2022/08/10 10:37:08;;;;;;;4.03;0.73;;;;;;;38.53;20.97;101856.56;5076028;28;20033;-53
2022/08/10 10:39:39;;;;;;;2.17;0.93;;;;;;;37.35;21.28;101850.41;5074985;28;20475;-49
2022/08/10 10:42:30;;;;;;;5.28;0.90;;;;;;;37.91;21.33;101856.50;5075205;28;20460;-53
2022/08/10 10:45:36;;;;;;;1.95;0.80;;;;;;;38.89;20.38;101849.28;5061188;28;20070;-50
2022/08/10 10:48:21;;;;;;;1.75;1.10;;;;;;;38.07;19.75;101851.00;5044140;28;20043;-50
2022/08/10 10:51:17;;;;;;;1.92;1.10;;;;;;;37.99;20.33;101854.75;5076911;28;20545;-51
2022/08/10 10:53:50;;;;;;;2.55;0.80;;;;;;;37.85;22.60;101841.03;5076004;28;20075;-49
2022/08/10 10:56:29;;;;;;;4.63;1.08;;;;;;;37.91;20.42;101850.88;5075937;28;20029;-53
2022/08/10 10:59:27;;;;;;;4.57;1.00;;;;;;;38.34;19.70;101835.50;5075997;28;20029;-52
2022/08/10 11:02:22;;;;;;;1.15;0.80;;;;;;;39.00;19.35;101832.75;5074861;28;20029;-48
2022/08/10 11:05:00;;;;;;;0.98;0.80;;;;;;;39.71;19.57;101827.56;5074601;28;20036;-49
2022/08/10 11:07:41;;;;;;;1.17;0.60;;;;;;;40.20;19.54;101822.44;5074819;28;20384;-48
2022/08/10 11:10:12;;;;;;;5.72;1.38;;;;;;;39.76;18.92;101825.31;5076192;28;20338;-49
2022/08/10 11:12:45;;;;;;;5.13;1.40;;;;;;;39.04;19.81;101809.25;5040868;28;20020;-49
2022/08/10 11:15:27;;;;;;;6.30;1.08;;;;;;;39.26;19.59;101821.09;5075480;28;20476;-50
2022/08/10 11:18:00;;;;;;;2.07;1.03;;;;;;;39.46;19.94;101822.09;5076028;28;20032;-49
2022/08/10 11:20:39;;;;;;;6.22;1.63;;;;;;;39.22;19.34;101817.38;5076053;28;20039;-49
2022/08/10 11:23:30;;;;;;;6.35;1.27;;;;;;;38.94;19.40;101811.72;5075564;28;20020;-51
2022/08/10 11:26:07;;;;;;;1.95;0.90;;;;;;;38.92;20.16;101807.25;5075005;28;20028;-49
2022/08/10 11:28:42;;;;;;;6.10;1.00;;;;;;;38.52;21.23;101807.19;5057897;28;20106;-48
2022/08/10 11:31:21;;;;;;;5.28;0.80;;;;;;;39.56;19.27;101801.06;5075393;28;20032;-50
2022/08/10 11:33:56;;;;;;;1.92;0.90;;;;;;;40.05;18.46;101800.75;5075474;28;20081;-49
2022/08/10 11:36:58;;;;;;;1.70;0.80;;;;;;;40.74;18.60;101797.56;5075578;28;20064;-51
2022/08/10 11:39:38;;;;;;;2.30;0.70;;;;;;;41.63;18.77;101787.31;5075512;28;20030;-50
2022/08/10 11:42:20;;;;;;;5.80;1.08;;;;;;;41.34;17.94;101778.28;5058563;28;20326;-52
2022/08/10 11:44:55;;;;;;;3.53;0.80;;;;;;;41.64;18.85;101788.13;5075863;28;20104;-50
2022/08/10 11:47:31;;;;;;;1.80;1.10;;;;;;;40.80;17.36;101779.19;5075620;28;20108;-48
2022/08/10 11:50:06;;;;;;;2.00;0.70;;;;;;;41.18;18.05;101764.28;5054001;28;20045;-49
2022/08/10 11:52:58;;;;;;;0.55;0.55;;;;;;;41.27;17.57;101780.16;5055973;28;20044;-54
2022/08/10 11:55:30;;;;;;;1.75;0.60;;;;;;;41.34;18.13;101781.09;5067527;28;20032;-51
2022/08/10 11:58:00;;;;;;;1.07;0.70;;;;;;;42.24;17.89;101774.22;5055290;28;20025;-48